Time;durP1;ratioP1;P1;durP2;ratioP2;P2;SDS_P1;SDS_P2;PMS_P1;PMS_P2;Temp;Humidity;BMP_temperature;BMP_pressure;BME280_temperature;BME280_humidity;BME280_pressure;Samples;Min_cycle;Max_cycle;Signal;HPM_P1;HPM_P2
2022/03/18 00:02:13;;;;;;;61.60;40.13;;;8.00;99.90;;;;;;4966995;28;20614;-88
2022/03/18 00:04:39;;;;;;;58.80;38.57;;;8.00;99.90;;;;;;4963786;28;20446;-87
2022/03/18 00:07:05;;;;;;;59.00;39.50;;;8.10;99.90;;;;;;4967773;28;20500;-88
2022/03/18 00:09:33;;;;;;;63.43;38.80;;;8.00;99.90;;;;;;4996971;28;20453;-88
2022/03/18 00:12:02;;;;;;;61.60;39.77;;;8.00;99.90;;;;;;4970487;28;20576;-88
2022/03/18 00:14:28;;;;;;;57.03;38.20;;;8.00;99.90;;;;;;4975346;28;20487;-88
2022/03/18 00:17:12;;;;;;;51.13;35.90;;;7.90;99.90;;;;;;4967707;28;20539;-88
2022/03/18 00:19:39;;;;;;;50.43;34.83;;;8.00;99.90;;;;;;4985952;28;20192;-89
2022/03/18 00:22:06;;;;;;;51.10;34.07;;;8.00;99.90;;;;;;4972548;28;21152;-87
2022/03/18 00:24:35;;;;;;;47.87;32.07;;;8.00;99.90;;;;;;4968934;28;21159;-88
2022/03/18 00:27:03;;;;;;;48.83;34.00;;;8.10;99.90;;;;;;4977901;28;20857;-89
2022/03/18 00:29:32;;;;;;;48.90;32.43;;;8.10;99.90;;;;;;4994019;28;20454;-89
2022/03/18 00:31:59;;;;;;;48.93;32.90;;;8.00;99.90;;;;;;4989560;28;20473;-89
2022/03/18 00:34:24;;;;;;;46.30;32.80;;;8.00;99.90;;;;;;4964578;28;21457;-89
2022/03/18 00:36:50;;;;;;;48.73;32.80;;;8.00;99.90;;;;;;4967302;28;20459;-89
2022/03/18 00:39:16;;;;;;;45.37;31.83;;;8.00;99.90;;;;;;4968909;28;20797;-88
2022/03/18 00:41:42;;;;;;;46.37;32.10;;;7.90;99.90;;;;;;4977263;28;20226;-89
2022/03/18 00:44:08;;;;;;;45.77;31.23;;;8.10;99.90;;;;;;4992323;28;21240;-89
2022/03/18 00:46:34;;;;;;;40.80;29.23;;;7.90;99.90;;;;;;4990967;28;23359;-89
2022/03/18 00:54:28;;;;;;;40.63;28.90;;;7.70;99.90;;;;;;4992031;28;20518;-88
2022/03/18 00:56:53;;;;;;;37.77;28.03;;;7.80;99.90;;;;;;4986729;28;20971;-88
2022/03/18 00:59:19;;;;;;;39.40;27.60;;;7.70;99.90;;;;;;4971775;28;21264;-90
2022/03/18 01:01:44;;;;;;;36.67;26.97;;;7.70;99.90;;;;;;4976004;28;20210;-89
2022/03/18 01:04:10;;;;;;;38.80;26.97;;;7.70;99.90;;;;;;4967655;28;20216;-89
2022/03/18 01:06:36;;;;;;;35.53;26.20;;;7.80;99.90;;;;;;4968951;28;20190;-89
2022/03/18 01:09:05;;;;;;;32.70;23.97;;;7.90;99.90;;;;;;4986983;28;20191;-89
2022/03/18 01:11:32;;;;;;;34.30;24.23;;;7.90;99.90;;;;;;4979729;28;20827;-89
2022/03/18 01:14:00;;;;;;;34.57;23.90;;;7.90;99.90;;;;;;4966246;28;20915;-88
2022/03/18 01:16:26;;;;;;;33.40;24.13;;;8.00;99.90;;;;;;4962455;28;20527;-89
2022/03/18 01:18:51;;;;;;;33.13;24.50;;;7.90;99.90;;;;;;4966636;28;20523;-88
2022/03/18 01:21:17;;;;;;;31.93;24.20;;;8.00;99.90;;;;;;4971041;28;20209;-88
2022/03/18 01:23:42;;;;;;;34.00;25.00;;;7.90;99.90;;;;;;4993873;28;20528;-88
2022/03/18 01:26:08;;;;;;;28.67;22.27;;;7.90;99.90;;;;;;4983380;28;20191;-88
2022/03/18 01:28:34;;;;;;;33.17;23.53;;;7.90;99.90;;;;;;4974524;28;20311;-91
2022/03/18 01:31:00;;;;;;;30.63;23.63;;;7.90;99.90;;;;;;4991404;28;21061;-91
2022/03/18 01:33:25;;;;;;;32.17;24.00;;;7.80;99.90;;;;;;4974365;28;21119;-90
2022/03/18 01:35:51;;;;;;;36.83;23.10;;;7.80;99.90;;;;;;4974831;28;20226;-90
2022/03/18 01:38:17;;;;;;;34.10;24.50;;;7.70;99.90;;;;;;4973664;28;20184;-91
2022/03/18 01:40:42;;;;;;;33.50;24.80;;;7.80;99.90;;;;;;4979090;28;20700;-91
2022/03/18 01:43:12;;;;;;;28.50;22.07;;;7.70;99.90;;;;;;4972705;28;20195;-91
2022/03/18 01:45:40;;;;;;;31.57;23.50;;;8.00;99.90;;;;;;4976995;28;20221;-91
2022/03/18 01:48:09;;;;;;;30.47;21.67;;;7.80;99.90;;;;;;4998355;28;20432;-91
2022/03/18 01:50:34;;;;;;;32.63;22.93;;;7.90;99.90;;;;;;4995286;28;21460;-91
2022/03/18 01:53:00;;;;;;;34.13;23.63;;;7.80;99.90;;;;;;4970393;28;20520;-89
2022/03/18 01:55:26;;;;;;;31.87;22.47;;;8.00;99.90;;;;;;4974045;28;20663;-90
2022/03/18 01:58:00;;;;;;;33.73;24.33;;;7.90;99.90;;;;;;4971243;28;20440;-90
2022/03/18 02:00:26;;;;;;;31.07;22.43;;;7.70;99.90;;;;;;4969938;28;20449;-90
2022/03/18 02:02:52;;;;;;;31.97;22.90;;;7.80;99.90;;;;;;4994403;28;20442;-90
2022/03/18 02:05:21;;;;;;;31.07;22.77;;;7.70;99.90;;;;;;4977845;28;20459;-90
2022/03/18 02:08:08;;;;;;;30.77;22.90;;;7.70;99.90;;;;;;4972203;28;20556;-90
2022/03/18 02:10:34;;;;;;;30.70;22.27;;;7.70;99.90;;;;;;4972319;28;20450;-90
2022/03/18 02:13:00;;;;;;;30.80;22.63;;;7.70;99.90;;;;;;4969850;28;20521;-90
2022/03/18 02:15:28;;;;;;;28.27;20.80;;;7.60;99.90;;;;;;4968839;28;21092;-89
2022/03/18 02:17:54;;;;;;;29.20;21.50;;;7.70;99.90;;;;;;4979865;28;20193;-88
2022/03/18 02:20:20;;;;;;;27.97;20.87;;;7.70;99.90;;;;;;4987087;28;20452;-89
2022/03/18 02:22:46;;;;;;;30.03;22.93;;;7.70;99.90;;;;;;4970485;28;20383;-89
2022/03/18 02:25:12;;;;;;;29.37;21.63;;;7.70;99.90;;;;;;4975426;28;20892;-89
2022/03/18 02:27:53;;;;;;;32.27;22.00;;;7.80;99.90;;;;;;4987805;28;20437;-89
2022/03/18 02:30:19;;;;;;;33.03;22.00;;;7.80;99.90;;;;;;4980797;28;20645;-88
2022/03/18 02:32:46;;;;;;;30.73;20.50;;;7.90;99.90;;;;;;4972821;28;20690;-89
2022/03/18 02:35:13;;;;;;;29.30;21.47;;;7.80;99.90;;;;;;4973146;28;20485;-88
2022/03/18 02:37:39;;;;;;;28.70;23.37;;;7.90;99.90;;;;;;4988053;28;20575;-88
2022/03/18 02:40:05;;;;;;;29.27;21.50;;;7.80;99.90;;;;;;4992446;28;20452;-89
2022/03/18 02:42:31;;;;;;;27.60;21.00;;;7.90;99.90;;;;;;4975364;28;20385;-89
2022/03/18 02:45:00;;;;;;;29.33;21.10;;;7.90;99.90;;;;;;4970498;28;21910;-88
2022/03/18 02:47:26;;;;;;;30.07;22.80;;;7.90;99.90;;;;;;4996951;28;20191;-88
2022/03/18 02:49:52;;;;;;;27.03;19.90;;;7.90;99.90;;;;;;4992521;28;20450;-88
2022/03/18 02:52:17;;;;;;;26.37;20.50;;;7.90;99.90;;;;;;4968780;28;20198;-88
2022/03/18 02:54:45;;;;;;;24.70;18.80;;;7.90;99.90;;;;;;4971500;28;20219;-88
2022/03/18 02:57:12;;;;;;;23.63;19.03;;;8.00;99.90;;;;;;4991188;28;20199;-89
2022/03/18 02:59:37;;;;;;;24.67;18.73;;;7.80;99.90;;;;;;4970625;28;20567;-88
2022/03/18 03:02:06;;;;;;;25.70;19.33;;;7.90;99.90;;;;;;4965388;28;20476;-89
2022/03/18 03:04:31;;;;;;;25.60;18.90;;;7.80;99.90;;;;;;4971519;28;20446;-89
2022/03/18 03:09:41;;;;;;;27.57;20.57;;;7.80;99.90;;;;;;4991317;28;20409;-88
2022/03/18 03:12:07;;;;;;;24.50;19.53;;;7.70;99.90;;;;;;4978814;28;20446;-88
2022/03/18 03:14:36;;;;;;;22.80;18.37;;;7.70;99.90;;;;;;4966104;28;20435;-88
2022/03/18 03:17:02;;;;;;;27.40;20.23;;;7.80;99.90;;;;;;4967119;28;21352;-89
2022/03/18 03:19:28;;;;;;;27.10;20.90;;;7.60;99.90;;;;;;4969730;28;21059;-87
2022/03/18 03:21:54;;;;;;;25.37;20.00;;;7.60;99.90;;;;;;4975490;28;20453;-88
2022/03/18 03:24:20;;;;;;;28.87;20.77;;;7.50;99.90;;;;;;4981334;28;22288;-87
2022/03/18 03:26:46;;;;;;;26.97;19.20;;;7.50;99.90;;;;;;4995461;28;20248;-88
2022/03/18 03:29:14;;;;;;;26.07;20.27;;;7.70;99.90;;;;;;4973703;28;20455;-89
2022/03/18 03:31:40;;;;;;;30.20;19.90;;;7.60;99.90;;;;;;4976066;28;20468;-88
2022/03/18 03:34:05;;;;;;;31.73;22.13;;;7.40;99.90;;;;;;4975427;28;24289;-88
2022/03/18 03:36:31;;;;;;;31.97;21.93;;;7.40;99.90;;;;;;4974881;28;20751;-89
2022/03/18 03:38:57;;;;;;;29.80;20.33;;;7.40;99.90;;;;;;4971243;28;20269;-87
2022/03/18 03:41:23;;;;;;;28.63;20.07;;;7.60;99.90;;;;;;4969396;28;20630;-88
2022/03/18 03:43:49;;;;;;;27.90;19.63;;;7.80;99.90;;;;;;4969417;28;20794;-88
2022/03/18 03:46:15;;;;;;;29.93;21.80;;;7.60;99.90;;;;;;4992026;28;20480;-88
2022/03/18 03:48:43;;;;;;;26.70;20.33;;;7.60;99.90;;;;;;4988413;28;21379;-89
2022/03/18 03:51:09;;;;;;;31.90;23.80;;;7.70;99.90;;;;;;4969789;28;20457;-90
2022/03/18 03:53:36;;;;;;;31.07;20.30;;;7.50;99.90;;;;;;4960668;28;20588;-90
2022/03/18 03:56:04;;;;;;;30.37;21.77;;;7.70;99.90;;;;;;4967329;28;20223;-88
2022/03/18 03:58:30;;;;;;;29.30;20.23;;;7.60;99.90;;;;;;4960463;28;20527;-90
2022/03/18 04:00:56;;;;;;;26.30;19.90;;;7.60;99.90;;;;;;4967400;28;21722;-88
2022/03/18 04:03:22;;;;;;;27.20;20.40;;;7.60;99.90;;;;;;4961009;28;20206;-87
2022/03/18 04:05:53;;;;;;;28.80;20.70;;;7.60;99.90;;;;;;4990265;28;20234;-89
2022/03/18 04:08:30;;;;;;;29.87;21.50;;;7.70;99.90;;;;;;4968613;28;20531;-86
2022/03/18 04:10:58;;;;;;;25.97;20.80;;;7.60;99.90;;;;;;4960825;28;20459;-86
2022/03/18 04:13:30;;;;;;;28.10;20.43;;;7.60;99.90;;;;;;4956113;28;20450;-88
2022/03/18 04:15:58;;;;;;;28.80;21.43;;;7.60;99.90;;;;;;4962733;28;20332;-88
2022/03/18 04:18:25;;;;;;;29.80;20.10;;;7.60;99.90;;;;;;4964770;28;21115;-89
2022/03/18 04:20:50;;;;;;;30.00;19.80;;;7.70;99.90;;;;;;4961749;28;20253;-89
2022/03/18 04:23:16;;;;;;;29.07;21.60;;;7.60;99.90;;;;;;4990397;28;21003;-88
2022/03/18 04:25:42;;;;;;;30.57;21.37;;;7.60;99.90;;;;;;4975752;28;20689;-88
2022/03/18 04:28:07;;;;;;;28.47;21.97;;;7.70;99.90;;;;;;4960746;28;20181;-88
2022/03/18 04:30:33;;;;;;;31.47;22.03;;;7.60;99.90;;;;;;4986949;28;20453;-88
2022/03/18 04:32:58;;;;;;;30.40;21.70;;;7.60;99.90;;;;;;4964475;28;20305;-88
2022/03/18 04:35:24;;;;;;;31.37;21.93;;;7.60;99.90;;;;;;4982214;28;20250;-89
2022/03/18 04:37:56;;;;;;;26.53;20.07;;;7.60;99.90;;;;;;4992438;28;22585;-90
2022/03/18 04:40:27;;;;;;;28.10;21.10;;;7.60;99.90;;;;;;4970458;28;20190;-88
2022/03/18 04:43:01;;;;;;;29.60;22.03;;;7.60;99.90;;;;;;4985997;28;20771;-89
2022/03/18 04:45:45;;;;;;;29.90;21.07;;;7.60;99.90;;;;;;4973826;28;20489;-89
2022/03/18 04:48:22;;;;;;;29.83;20.50;;;7.60;99.90;;;;;;4988591;28;20445;-89
2022/03/18 04:50:47;;;;;;;29.47;21.03;;;7.60;99.90;;;;;;4973384;28;20457;-88
2022/03/18 04:53:14;;;;;;;35.63;23.47;;;7.50;99.90;;;;;;4974747;28;20193;-92
2022/03/18 04:55:40;;;;;;;31.47;22.00;;;7.50;99.90;;;;;;4996053;28;20268;-92
2022/03/18 04:58:06;;;;;;;31.37;22.23;;;7.40;99.90;;;;;;4971349;28;22401;-90
2022/03/18 05:00:32;;;;;;;33.10;22.80;;;7.40;99.90;;;;;;4975738;28;20478;-90
2022/03/18 05:03:02;;;;;;;34.07;22.07;;;7.40;99.90;;;;;;4997055;28;20665;-91
2022/03/18 05:05:28;;;;;;;31.33;21.17;;;7.50;99.90;;;;;;4986375;28;20463;-89
2022/03/18 05:07:54;;;;;;;35.33;22.10;;;7.60;99.90;;;;;;4997694;28;20450;-89
2022/03/18 05:13:15;;;;;;;33.33;22.67;;;7.40;99.90;;;;;;4990062;28;20496;-90
2022/03/18 05:15:43;;;;;;;29.97;21.30;;;7.40;99.90;;;;;;4971038;28;20486;-89
2022/03/18 05:18:26;;;;;;;31.43;21.60;;;7.60;99.90;;;;;;4968353;28;20575;-90
2022/03/18 05:20:55;;;;;;;37.40;23.37;;;7.50;99.90;;;;;;4974938;28;20454;-89
2022/03/18 05:23:23;;;;;;;29.77;21.13;;;7.50;99.90;;;;;;4990689;28;20458;-90
2022/03/18 05:25:49;;;;;;;34.57;23.43;;;7.40;99.90;;;;;;4992260;28;20442;-89
2022/03/18 05:28:15;;;;;;;34.87;23.90;;;7.30;99.90;;;;;;4982171;28;21207;-90
2022/03/18 05:30:40;;;;;;;32.87;22.87;;;7.30;99.90;;;;;;4981952;28;20281;-90
2022/03/18 05:33:07;;;;;;;33.97;24.47;;;7.40;99.90;;;;;;4969120;28;21253;-90
2022/03/18 05:35:32;;;;;;;32.27;22.43;;;7.30;99.90;;;;;;4969091;28;20219;-89
2022/03/18 05:37:58;;;;;;;33.27;23.17;;;7.40;99.90;;;;;;4972950;28;22009;-88
2022/03/18 05:40:24;;;;;;;33.97;23.57;;;7.40;99.90;;;;;;4977456;28;20188;-88
2022/03/18 05:42:50;;;;;;;33.80;23.20;;;7.50;99.90;;;;;;4988186;28;20199;-90
2022/03/18 05:45:16;;;;;;;31.60;20.60;;;7.40;99.90;;;;;;4959217;28;20199;-90
2022/03/18 05:47:41;;;;;;;32.30;22.50;;;7.50;99.90;;;;;;4984683;28;20444;-90
2022/03/18 05:50:08;;;;;;;31.37;21.33;;;7.40;99.90;;;;;;4967236;28;21097;-90
2022/03/18 05:52:35;;;;;;;29.50;21.40;;;7.40;99.90;;;;;;4967785;28;20201;-90
2022/03/18 05:55:01;;;;;;;30.50;20.90;;;7.50;99.90;;;;;;4979133;28;20480;-91
2022/03/18 05:57:30;;;;;;;31.20;22.77;;;7.50;99.90;;;;;;4969931;28;20568;-90
2022/03/18 05:59:59;;;;;;;30.27;21.20;;;7.40;99.90;;;;;;4977871;28;20455;-90
2022/03/18 06:02:25;;;;;;;30.77;21.40;;;7.60;99.90;;;;;;4972026;28;20484;-92
2022/03/18 06:04:55;;;;;;;31.77;22.90;;;7.60;99.90;;;;;;4968009;28;20931;-92
2022/03/18 06:07:21;;;;;;;30.77;23.57;;;7.60;99.90;;;;;;4978401;28;20480;-89
2022/03/18 06:12:31;;;;;;;29.73;20.70;;;7.60;99.90;;;;;;4990700;28;20220;-88
2022/03/18 06:14:56;;;;;;;30.50;21.70;;;7.70;99.90;;;;;;4985394;28;20865;-89
2022/03/18 06:17:22;;;;;;;29.13;21.23;;;7.70;99.90;;;;;;4967724;28;20670;-88
2022/03/18 06:19:47;;;;;;;31.43;22.03;;;7.60;99.90;;;;;;4989953;28;20178;-89
2022/03/18 06:22:29;;;;;;;34.10;22.70;;;7.50;99.90;;;;;;4984841;28;20196;-88
2022/03/18 06:24:57;;;;;;;32.50;22.83;;;7.50;99.90;;;;;;4972578;28;20280;-88
2022/03/18 06:27:23;;;;;;;33.80;24.13;;;7.60;99.90;;;;;;4978450;28;20469;-89
2022/03/18 06:29:48;;;;;;;31.50;22.40;;;7.50;99.90;;;;;;4971264;28;20444;-88
2022/03/18 06:32:30;;;;;;;32.20;21.60;;;7.60;99.90;;;;;;4990278;28;20214;-89
2022/03/18 06:34:56;;;;;;;30.63;21.33;;;7.60;99.90;;;;;;4969409;28;20976;-88
2022/03/18 06:37:21;;;;;;;32.10;21.10;;;7.70;99.90;;;;;;4982880;28;21010;-88
2022/03/18 06:39:47;;;;;;;33.23;22.30;;;7.70;99.90;;;;;;4994823;28;20190;-90
2022/03/18 06:42:12;;;;;;;32.67;22.50;;;7.80;99.90;;;;;;4993731;28;20283;-88
2022/03/18 06:44:38;;;;;;;29.63;22.07;;;7.80;99.90;;;;;;4994181;28;20194;-89
2022/03/18 06:47:27;;;;;;;34.17;23.60;;;7.70;99.90;;;;;;4993558;28;20190;-89
2022/03/18 06:49:52;;;;;;;32.17;23.80;;;7.80;99.90;;;;;;4972665;28;20485;-89
2022/03/18 06:52:18;;;;;;;32.07;21.67;;;7.80;99.90;;;;;;4970805;28;20703;-90
2022/03/18 06:54:43;;;;;;;32.63;23.57;;;7.90;99.90;;;;;;4980447;28;20214;-90
2022/03/18 06:57:09;;;;;;;32.83;23.13;;;7.80;99.90;;;;;;4998223;28;20195;-91
2022/03/18 06:59:35;;;;;;;34.67;24.13;;;7.90;99.90;;;;;;4977297;28;20712;-89
2022/03/18 07:02:01;;;;;;;34.63;24.17;;;7.80;99.90;;;;;;4987566;28;20241;-88
2022/03/18 07:04:26;;;;;;;36.87;25.17;;;7.80;99.90;;;;;;5000663;28;20446;-90
2022/03/18 07:07:03;;;;;;;63.40;29.90;;;7.80;99.90;;;;;;4975660;28;20190;-90
2022/03/18 07:09:29;;;;;;;95.97;36.77;;;7.90;99.90;;;;;;4967063;28;20198;-89
2022/03/18 07:11:55;;;;;;;41.83;26.73;;;8.00;99.90;;;;;;4981073;28;20499;-90
2022/03/18 07:14:20;;;;;;;96.40;33.63;;;8.00;99.90;;;;;;4971725;28;20190;-89
2022/03/18 07:19:30;;;;;;;37.40;27.27;;;8.10;99.90;;;;;;4997504;28;20206;-88
2022/03/18 07:22:01;;;;;;;38.53;25.90;;;8.00;99.90;;;;;;4974607;28;20453;-87
2022/03/18 07:24:35;;;;;;;39.00;27.73;;;8.20;99.90;;;;;;4971178;28;20223;-89
2022/03/18 07:27:01;;;;;;;39.70;27.03;;;8.30;99.90;;;;;;4984683;28;20548;-88
2022/03/18 07:29:26;;;;;;;38.83;27.40;;;8.10;99.90;;;;;;4992599;28;20453;-88
2022/03/18 07:31:54;;;;;;;37.40;26.57;;;8.20;99.90;;;;;;4995970;28;21871;-88
2022/03/18 07:34:21;;;;;;;41.20;28.27;;;8.20;99.90;;;;;;4972936;28;20202;-89
2022/03/18 07:36:47;;;;;;;42.83;27.17;;;8.10;99.90;;;;;;4973715;28;20774;-88
2022/03/18 07:39:13;;;;;;;43.60;30.20;;;8.20;99.90;;;;;;4978167;28;20454;-88
2022/03/18 07:41:39;;;;;;;39.13;29.10;;;8.20;99.90;;;;;;4995833;28;20864;-88
2022/03/18 07:44:04;;;;;;;40.60;27.00;;;8.20;99.90;;;;;;4979093;28;20689;-89
2022/03/18 07:46:30;;;;;;;39.60;27.90;;;8.20;99.90;;;;;;4981673;28;20188;-88
2022/03/18 07:48:56;;;;;;;50.93;28.30;;;8.10;99.90;;;;;;5011278;28;20184;-88
2022/03/18 07:51:21;;;;;;;46.70;29.23;;;8.10;99.90;;;;;;4996285;28;20765;-89
2022/03/18 07:53:47;;;;;;;44.03;29.23;;;8.30;99.90;;;;;;4996003;28;20531;-90
2022/03/18 07:56:12;;;;;;;36.87;27.20;;;8.10;99.90;;;;;;4978212;28;20547;-89
2022/03/18 07:58:38;;;;;;;43.37;27.87;;;8.10;99.90;;;;;;4995842;28;20184;-88
2022/03/18 08:01:05;;;;;;;42.67;29.63;;;8.20;99.90;;;;;;4976416;28;20230;-89
2022/03/18 08:03:33;;;;;;;42.37;28.07;;;8.10;99.90;;;;;;4998076;28;20189;-88
2022/03/18 08:06:01;;;;;;;45.47;29.53;;;8.10;99.90;;;;;;4989606;28;20447;-90
2022/03/18 08:08:27;;;;;;;39.60;27.60;;;8.20;99.90;;;;;;4976286;28;20454;-89
2022/03/18 08:10:53;;;;;;;41.47;27.40;;;8.40;99.90;;;;;;4977471;28;20433;-89
2022/03/18 08:13:23;;;;;;;43.90;27.90;;;8.40;99.90;;;;;;4979530;28;20188;-89
2022/03/18 08:15:49;;;;;;;43.40;30.20;;;8.50;99.90;;;;;;4975922;28;20483;-90
2022/03/18 08:18:19;;;;;;;41.13;27.43;;;8.60;99.90;;;;;;4973893;28;20478;-89
2022/03/18 08:20:50;;;;;;;39.87;27.83;;;8.60;99.90;;;;;;4976388;28;20457;-88
2022/03/18 08:23:15;;;;;;;45.40;29.03;;;8.60;99.90;;;;;;4982523;28;20959;-88
2022/03/18 08:25:41;;;;;;;39.03;27.43;;;8.80;99.90;;;;;;4975536;28;20460;-89
2022/03/18 08:28:08;;;;;;;41.17;29.20;;;8.90;99.90;;;;;;4980186;28;22330;-90
2022/03/18 08:30:38;;;;;;;42.37;27.67;;;8.90;99.90;;;;;;4995918;28;20963;-89
2022/03/18 08:33:04;;;;;;;38.80;26.50;;;8.90;99.90;;;;;;4983330;28;20948;-89
2022/03/18 08:35:30;;;;;;;41.30;27.10;;;9.20;99.90;;;;;;4998273;28;20580;-89
2022/03/18 08:37:56;;;;;;;38.50;27.00;;;9.00;99.90;;;;;;4972624;28;20487;-89
2022/03/18 08:40:23;;;;;;;127.83;39.37;;;9.10;99.90;;;;;;4964904;28;21444;-89
2022/03/18 08:42:51;;;;;;;77.13;32.83;;;9.10;99.90;;;;;;4977961;28;20275;-89
2022/03/18 08:45:33;;;;;;;78.47;36.27;;;9.10;99.90;;;;;;4972092;28;20445;-89
2022/03/18 08:47:59;;;;;;;38.33;26.40;;;9.10;99.90;;;;;;4967612;28;20846;-88
2022/03/18 08:50:25;;;;;;;39.37;26.87;;;9.00;99.90;;;;;;4969290;28;21073;-88
2022/03/18 08:52:53;;;;;;;49.63;30.27;;;8.90;99.90;;;;;;4969630;28;20465;-88
2022/03/18 08:55:21;;;;;;;37.93;28.20;;;9.00;99.90;;;;;;4971693;28;20230;-89
2022/03/18 08:57:47;;;;;;;39.50;27.90;;;9.30;99.90;;;;;;4988105;28;22149;-89
2022/03/18 09:00:17;;;;;;;41.10;28.33;;;9.30;99.90;;;;;;4979546;28;20534;-89
2022/03/18 09:02:49;;;;;;;41.43;28.73;;;9.50;99.90;;;;;;4967998;28;20492;-88
2022/03/18 09:05:16;;;;;;;41.80;28.43;;;9.60;99.90;;;;;;4986938;28;20875;-88
2022/03/18 09:07:42;;;;;;;37.50;27.60;;;9.60;99.90;;;;;;4974182;28;20569;-88
2022/03/18 09:10:09;;;;;;;37.60;26.23;;;9.50;99.90;;;;;;4987100;28;21029;-87
2022/03/18 09:12:35;;;;;;;36.23;27.93;;;9.40;99.90;;;;;;4981746;28;20194;-89
2022/03/18 09:15:03;;;;;;;37.80;28.60;;;9.40;99.90;;;;;;4973668;28;20902;-89
2022/03/18 09:17:29;;;;;;;39.57;27.67;;;9.50;99.90;;;;;;4972550;28;20192;-88
2022/03/18 09:19:54;;;;;;;39.57;27.63;;;9.60;99.90;;;;;;4967655;28;22071;-88
2022/03/18 09:22:21;;;;;;;39.50;27.47;;;9.60;99.90;;;;;;4986465;28;20221;-88
2022/03/18 09:24:47;;;;;;;38.63;28.63;;;9.70;99.90;;;;;;4995683;28;20435;-89
2022/03/18 09:27:14;;;;;;;37.57;27.70;;;9.60;99.90;;;;;;4972230;28;21052;-89
2022/03/18 09:29:43;;;;;;;37.40;27.33;;;9.60;99.90;;;;;;4972251;28;20650;-89
2022/03/18 09:32:09;;;;;;;40.10;27.93;;;9.80;99.90;;;;;;4971149;28;20469;-90
2022/03/18 09:34:35;;;;;;;39.40;28.07;;;9.90;99.90;;;;;;4964981;28;20460;-89
2022/03/18 09:37:01;;;;;;;35.43;27.60;;;10.10;99.90;;;;;;4978678;28;20892;-90
2022/03/18 09:39:27;;;;;;;37.90;28.57;;;10.10;99.90;;;;;;4989955;28;20661;-88
2022/03/18 09:41:53;;;;;;;37.13;26.17;;;10.10;99.90;;;;;;4969116;28;20484;-89
2022/03/18 09:44:22;;;;;;;36.73;28.63;;;10.00;99.90;;;;;;4992875;28;20550;-91
2022/03/18 09:46:51;;;;;;;39.87;28.77;;;9.90;99.90;;;;;;4977504;28;20568;-89
2022/03/18 09:49:20;;;;;;;37.30;27.87;;;9.90;99.90;;;;;;4986010;28;20431;-89
2022/03/18 09:51:48;;;;;;;38.03;27.40;;;10.00;99.90;;;;;;4976807;28;21163;-89
2022/03/18 09:54:15;;;;;;;33.40;26.40;;;9.90;99.90;;;;;;4989657;28;20742;-89
2022/03/18 09:56:42;;;;;;;32.27;25.23;;;10.00;99.90;;;;;;4990936;28;20504;-89
2022/03/18 09:59:09;;;;;;;35.03;26.63;;;10.20;99.90;;;;;;4964460;28;20462;-89
2022/03/18 10:01:35;;;;;;;34.70;27.67;;;10.30;99.90;;;;;;4982941;28;20447;-88
2022/03/18 10:04:12;;;;;;;36.13;28.17;;;10.30;99.90;;;;;;4969256;28;20990;-89
2022/03/18 10:06:41;;;;;;;34.20;26.10;;;10.20;99.90;;;;;;4971895;28;20485;-89
2022/03/18 10:09:07;;;;;;;32.23;25.17;;;10.20;99.90;;;;;;4971136;28;20963;-89
2022/03/18 10:11:36;;;;;;;38.63;26.90;;;10.60;99.90;;;;;;4970105;28;21000;-89
2022/03/18 10:17:19;;;;;;;31.73;25.23;;;10.50;99.90;;;;;;4991320;28;20465;-89
2022/03/18 10:19:46;;;;;;;32.07;24.73;;;10.80;99.90;;;;;;4972919;28;20455;-89
2022/03/18 10:22:17;;;;;;;33.07;25.07;;;10.70;99.90;;;;;;4969017;28;20238;-89
2022/03/18 10:24:43;;;;;;;35.30;25.93;;;10.80;99.90;;;;;;4974643;28;20455;-89
2022/03/18 10:27:17;;;;;;;31.53;25.47;;;11.10;99.90;;;;;;4974677;28;22429;-89
2022/03/18 10:29:54;;;;;;;31.33;24.87;;;11.10;99.90;;;;;;4979099;28;21066;-89
2022/03/18 10:32:22;;;;;;;32.70;23.03;;;10.80;99.90;;;;;;5006381;28;20515;-89
2022/03/18 10:37:53;;;;;;;33.10;25.47;;;11.20;99.90;;;;;;5006893;28;20469;-89
2022/03/18 10:40:36;;;;;;;29.73;24.30;;;11.30;99.90;;;;;;4989316;28;20441;-89
2022/03/18 10:43:06;;;;;;;27.90;22.80;;;11.10;99.90;;;;;;5011219;28;20457;-89
2022/03/18 10:45:33;;;;;;;28.00;23.57;;;11.10;99.90;;;;;;4983548;28;20558;-90
2022/03/18 10:48:12;;;;;;;29.00;22.27;;;11.30;99.90;;;;;;4989749;28;20528;-89
2022/03/18 10:50:40;;;;;;;27.60;22.03;;;11.30;99.90;;;;;;5004959;28;20454;-90
2022/03/18 10:53:08;;;;;;;26.60;21.73;;;11.20;99.90;;;;;;4989573;28;21082;-88
2022/03/18 10:55:39;;;;;;;26.07;21.27;;;11.10;99.90;;;;;;4989321;28;20477;-88
2022/03/18 10:58:11;;;;;;;28.33;21.93;;;11.20;99.90;;;;;;5008510;28;20434;-89
2022/03/18 11:00:42;;;;;;;27.87;22.60;;;11.00;99.90;;;;;;4986062;28;20846;-88
2022/03/18 11:03:08;;;;;;;29.57;23.27;;;11.30;99.90;;;;;;4984667;28;20442;-90
2022/03/18 11:05:35;;;;;;;28.10;22.00;;;11.50;99.90;;;;;;5004135;28;20450;-89
2022/03/18 11:08:04;;;;;;;32.07;23.40;;;11.30;99.90;;;;;;4988979;28;20434;-89
2022/03/18 11:13:20;;;;;;;27.53;21.20;;;11.80;99.90;;;;;;5009016;28;20446;-89
2022/03/18 11:15:49;;;;;;;27.83;22.67;;;12.40;99.90;;;;;;4984814;28;20667;-89
2022/03/18 11:18:15;;;;;;;27.97;22.60;;;12.50;99.90;;;;;;4983298;28;20438;-90
2022/03/18 11:20:43;;;;;;;29.03;23.37;;;12.60;99.90;;;;;;4985095;28;20449;-89
2022/03/18 11:23:24;;;;;;;28.17;23.17;;;12.70;99.90;;;;;;4990799;28;20449;-89
2022/03/18 11:25:54;;;;;;;26.97;23.27;;;12.80;99.90;;;;;;4986388;28;20506;-89
2022/03/18 11:28:21;;;;;;;28.67;22.50;;;12.30;99.90;;;;;;4986869;28;20817;-89
2022/03/18 11:30:49;;;;;;;28.10;23.90;;;12.50;99.90;;;;;;4978927;28;20451;-89
2022/03/18 11:33:15;;;;;;;28.07;21.87;;;12.60;99.90;;;;;;4973765;28;20611;-89
2022/03/18 11:35:52;;;;;;;29.93;22.67;;;12.70;99.90;;;;;;4977401;28;20980;-90
2022/03/18 11:38:25;;;;;;;33.27;23.77;;;12.50;99.90;;;;;;4975607;28;20214;-90
2022/03/18 11:40:59;;;;;;;29.83;23.23;;;12.50;99.90;;;;;;5004545;28;20470;-89
2022/03/18 11:43:39;;;;;;;29.27;22.50;;;12.10;99.90;;;;;;4979254;28;20461;-90
2022/03/18 11:46:16;;;;;;;26.63;21.93;;;12.20;99.90;;;;;;4975511;28;20442;-90
2022/03/18 11:48:51;;;;;;;29.03;23.23;;;12.40;99.90;;;;;;4975286;28;20438;-89
2022/03/18 11:51:30;;;;;;;26.23;22.30;;;12.90;99.90;;;;;;4993016;28;20765;-89
2022/03/18 11:54:07;;;;;;;29.30;23.93;;;13.60;99.90;;;;;;4977905;28;20447;-89
2022/03/18 11:56:39;;;;;;;26.87;22.33;;;13.50;99.50;;;;;;4975856;28;20587;-88
2022/03/18 11:59:31;;;;;;;26.50;22.93;;;13.30;98.70;;;;;;4975354;28;20448;-89
2022/03/18 12:02:02;;;;;;;26.20;22.77;;;13.30;98.30;;;;;;4992607;28;20564;-90
2022/03/18 12:04:36;;;;;;;26.90;23.70;;;13.60;98.20;;;;;;4995016;28;21053;-89
2022/03/18 12:07:19;;;;;;;24.87;21.27;;;13.60;98.30;;;;;;4978184;28;21024;-88
2022/03/18 12:10:02;;;;;;;25.40;21.67;;;13.90;97.90;;;;;;5003509;28;20466;-89
2022/03/18 12:12:42;;;;;;;25.40;22.57;;;14.20;97.30;;;;;;4980192;28;20461;-89
2022/03/18 12:15:21;;;;;;;27.70;23.83;;;14.40;96.60;;;;;;4969028;28;20649;-89
2022/03/18 12:18:30;;;;;;;27.00;23.67;;;14.30;95.70;;;;;;4974818;28;20458;-90
2022/03/18 12:20:56;;;;;;;26.40;23.20;;;13.90;96.30;;;;;;4981509;28;20450;-89
2022/03/18 12:23:21;;;;;;;24.97;22.13;;;13.80;96.20;;;;;;4975983;28;20438;-89
2022/03/18 12:25:47;;;;;;;28.17;22.43;;;13.40;96.30;;;;;;4979477;28;20188;-90
2022/03/18 12:28:13;;;;;;;25.60;22.17;;;13.60;97.10;;;;;;4985744;28;20868;-89
2022/03/18 12:30:38;;;;;;;28.80;23.80;;;14.00;96.20;;;;;;4996230;28;20874;-89
2022/03/18 12:33:06;;;;;;;26.97;24.07;;;13.90;96.10;;;;;;4969132;28;20242;-89
2022/03/18 12:35:37;;;;;;;32.20;24.10;;;13.80;96.10;;;;;;4978174;28;21567;-89
2022/03/18 12:38:06;;;;;;;28.33;24.20;;;13.90;96.80;;;;;;4972249;28;20423;-89
2022/03/18 12:40:33;;;;;;;28.37;23.37;;;14.50;97.70;;;;;;4997624;28;20446;-89
2022/03/18 12:43:02;;;;;;;27.83;23.73;;;14.60;96.10;;;;;;4974132;28;20439;-89
2022/03/18 12:45:42;;;;;;;26.80;22.93;;;14.70;95.50;;;;;;4976249;28;20843;-90
2022/03/18 12:48:20;;;;;;;27.20;22.33;;;14.60;95.70;;;;;;4972780;28;21118;-90
2022/03/18 12:50:54;;;;;;;25.83;23.03;;;14.80;96.50;;;;;;4974620;28;20454;-89
2022/03/18 12:53:40;;;;;;;;;;;;;;;;;;;;;
2022/03/18 12:56:16;;;;;;;26.30;22.70;;;15.30;95.30;;;;;;4983093;28;20483;-89
2022/03/18 12:58:45;;;;;;;25.93;23.10;;;15.00;95.00;;;;;;4974713;28;21979;-89
2022/03/18 13:01:12;;;;;;;27.80;23.43;;;14.30;94.90;;;;;;4985131;28;21731;-90
2022/03/18 13:03:47;;;;;;;28.30;23.57;;;14.10;95.20;;;;;;4991975;28;20446;-90
2022/03/18 13:06:18;;;;;;;25.87;22.30;;;13.80;95.60;;;;;;4998501;28;20449;-89
2022/03/18 13:09:06;;;;;;;25.30;21.77;;;13.60;95.60;;;;;;4973159;28;20445;-89